createdAt,value
2018-10-05T00:02:01.212Z,9.89
2018-10-05T00:04:30.768Z,9.85
2018-10-05T00:07:00.332Z,9.80
2018-10-05T00:09:29.984Z,9.80
2018-10-05T00:11:59.959Z,9.74
2018-10-05T00:14:29.555Z,9.73
2018-10-05T00:16:59.471Z,9.73
2018-10-05T00:19:28.983Z,9.72
2018-10-05T00:21:58.617Z,9.71
2018-10-05T00:24:28.325Z,9.70
2018-10-05T00:26:57.851Z,9.68
2018-10-05T00:29:27.594Z,9.67
2018-10-05T00:31:57.288Z,9.64
2018-10-05T00:34:26.932Z,9.62
2018-10-05T00:36:56.637Z,9.61
2018-10-05T00:39:26.158Z,9.57
2018-10-05T00:41:55.688Z,9.57
2018-10-05T00:44:25.242Z,9.59
2018-10-05T00:46:54.771Z,9.56
2018-10-05T00:49:24.335Z,9.57
2018-10-05T00:51:54.053Z,9.59
2018-10-05T00:54:23.695Z,9.55
2018-10-05T00:56:53.491Z,9.54
2018-10-05T00:59:23.124Z,9.50
2018-10-05T01:01:52.771Z,9.38
2018-10-05T01:04:22.379Z,9.36
2018-10-05T01:06:51.922Z,9.33
2018-10-05T01:09:21.463Z,9.24
2018-10-05T01:11:50.996Z,9.20
2018-10-05T01:14:20.607Z,9.16
2018-10-05T01:16:50.141Z,9.14
2018-10-05T01:19:19.945Z,9.08
2018-10-05T01:21:49.484Z,9.05
2018-10-05T01:24:18.987Z,9.00
2018-10-05T01:26:48.837Z,8.95
2018-10-05T01:29:18.634Z,8.93
2018-10-05T01:31:48.244Z,8.91
2018-10-05T01:34:17.772Z,8.90
2018-10-05T01:36:47.496Z,8.89
2018-10-05T01:39:17.124Z,8.87
2018-10-05T01:41:46.656Z,8.86
2018-10-05T01:44:16.240Z,8.84
2018-10-05T01:46:45.892Z,8.86
2018-10-05T01:49:15.583Z,8.86
2018-10-05T01:51:45.236Z,8.84
2018-10-05T01:54:14.832Z,8.83
2018-10-05T01:56:44.433Z,8.81
2018-10-05T01:59:14.063Z,8.83
2018-10-05T02:01:43.715Z,8.79
2018-10-05T02:04:13.341Z,8.80
2018-10-05T02:06:42.865Z,8.79
2018-10-05T02:09:12.433Z,8.81
2018-10-05T02:11:42.056Z,8.79
2018-10-05T02:14:11.589Z,8.76
2018-10-05T02:16:41.296Z,8.75
2018-10-05T02:19:10.833Z,8.76
2018-10-05T02:21:40.355Z,8.73
2018-10-05T02:24:09.880Z,8.66
2018-10-05T02:26:39.463Z,8.61
2018-10-05T02:29:08.997Z,8.56
2018-10-05T02:31:38.608Z,8.59
2018-10-05T02:34:08.207Z,8.56
2018-10-05T02:36:37.793Z,8.55
2018-10-05T02:39:11.302Z,8.49
2018-10-05T02:41:41.154Z,8.49
2018-10-05T02:44:10.792Z,8.47
2018-10-05T02:46:40.684Z,8.44
2018-10-05T02:49:10.212Z,8.43
2018-10-05T02:51:39.815Z,8.44
2018-10-05T02:54:09.324Z,8.47
2018-10-05T02:56:39.091Z,8.46
2018-10-05T02:59:08.820Z,8.46
2018-10-05T03:01:55.233Z,8.47
2018-10-05T03:04:24.973Z,8.45
2018-10-05T03:06:54.775Z,8.44
2018-10-05T03:09:24.395Z,8.41
2018-10-05T03:11:54.005Z,8.40
2018-10-05T03:14:23.543Z,8.37
2018-10-05T03:16:53.146Z,8.34
2018-10-05T03:19:22.868Z,8.30
2018-10-05T03:21:52.427Z,8.30
2018-10-05T03:24:22.118Z,8.27
2018-10-05T03:26:51.711Z,8.21
2018-10-05T03:29:21.251Z,8.23
2018-10-05T03:31:50.859Z,8.28
2018-10-05T03:34:20.467Z,8.29
2018-10-05T03:36:50.103Z,8.20
2018-10-05T03:39:19.724Z,8.17
2018-10-05T03:41:49.353Z,8.16
2018-10-05T03:44:19.048Z,8.17
2018-10-05T03:46:48.579Z,8.15
2018-10-05T03:49:18.092Z,8.13
2018-10-05T03:51:47.739Z,8.08
2018-10-05T03:54:17.427Z,8.01
2018-10-05T03:56:47.283Z,8.04
2018-10-05T03:59:16.900Z,8.04
2018-10-05T04:01:46.496Z,7.96
2018-10-05T04:04:16.065Z,7.92
2018-10-05T04:06:45.590Z,7.91
2018-10-05T04:09:15.134Z,7.91
2018-10-05T04:11:44.643Z,7.92
2018-10-05T04:14:14.179Z,7.89
2018-10-05T04:16:43.709Z,7.86
2018-10-05T04:19:13.232Z,7.88
2018-10-05T04:21:42.806Z,7.88
2018-10-05T04:24:12.379Z,7.83
2018-10-05T04:26:42.147Z,7.83
2018-10-05T04:29:11.683Z,7.82
2018-10-05T04:31:41.739Z,7.80
2018-10-05T04:34:11.290Z,7.77
2018-10-05T04:36:40.791Z,7.79
2018-10-05T04:39:10.448Z,7.72
2018-10-05T04:41:40.014Z,7.62
2018-10-05T04:44:09.563Z,7.57
2018-10-05T04:46:39.087Z,7.56
2018-10-05T04:49:08.660Z,7.56
2018-10-05T04:51:38.308Z,7.62
2018-10-05T04:54:07.908Z,7.60
2018-10-05T04:56:37.454Z,7.55
2018-10-05T04:59:06.999Z,7.53
2018-10-05T05:01:36.519Z,7.57
2018-10-05T05:04:06.576Z,7.59
2018-10-05T05:06:36.079Z,7.64
2018-10-05T05:09:07.900Z,7.60
2018-10-05T05:11:37.450Z,7.50
2018-10-05T05:14:07.085Z,7.38
2018-10-05T05:16:36.603Z,7.28
2018-10-05T05:19:07.046Z,7.29
2018-10-05T05:21:36.551Z,7.30
2018-10-05T05:24:06.098Z,7.28
2018-10-05T05:26:35.783Z,7.28
2018-10-05T05:29:05.360Z,7.32
2018-10-05T05:31:35.080Z,7.40
2018-10-05T05:34:04.719Z,7.40
2018-10-05T05:36:34.415Z,7.41
2018-10-05T05:39:05.367Z,7.40
2018-10-05T05:41:34.964Z,7.40
2018-10-05T05:44:04.567Z,7.36
2018-10-05T05:46:34.131Z,7.38
2018-10-05T05:49:03.686Z,7.40
2018-10-05T05:51:33.206Z,7.50
2018-10-05T05:54:02.771Z,7.64
2018-10-05T05:56:32.443Z,7.81
2018-10-05T05:59:01.941Z,7.92
2018-10-05T06:01:31.495Z,8.08
2018-10-05T06:04:01.038Z,8.23
2018-10-05T06:06:30.943Z,8.36
2018-10-05T06:09:00.488Z,8.47
2018-10-05T06:11:30.022Z,8.63
2018-10-05T06:13:59.571Z,8.77
2018-10-05T06:16:29.225Z,8.91
2018-10-05T06:18:58.937Z,9.05
2018-10-05T06:21:30.205Z,9.16
2018-10-05T06:23:59.932Z,9.29
2018-10-05T06:26:29.833Z,9.38
2018-10-05T06:28:59.439Z,9.47
2018-10-05T06:31:29.011Z,9.54
2018-10-05T06:33:58.601Z,9.63
2018-10-05T06:36:28.395Z,9.76
2018-10-05T06:38:57.990Z,9.89
2018-10-05T06:41:27.746Z,10.10
2018-10-05T06:43:57.299Z,10.26
2018-10-05T06:46:26.848Z,10.47
2018-10-05T06:48:56.396Z,10.67
2018-10-05T06:51:25.954Z,10.79
2018-10-05T06:53:55.803Z,10.96
2018-10-05T06:56:25.332Z,11.15
2018-10-05T06:58:55.172Z,11.39
2018-10-05T07:01:24.723Z,11.53
2018-10-05T07:03:54.453Z,11.62
2018-10-05T07:06:23.984Z,11.83
2018-10-05T07:08:53.521Z,12.02
2018-10-05T07:11:23.432Z,12.15
2018-10-05T07:13:53.141Z,12.28
2018-10-05T07:16:22.701Z,12.50
2018-10-05T07:18:52.230Z,12.75
2018-10-05T07:21:21.773Z,12.98
2018-10-05T07:23:51.496Z,13.18
2018-10-05T07:26:21.067Z,13.29
2018-10-05T07:28:50.702Z,13.47
2018-10-05T07:31:20.361Z,13.69
2018-10-05T07:33:49.900Z,13.78
2018-10-05T07:36:19.448Z,13.82
2018-10-05T07:38:49.092Z,13.93
2018-10-05T07:41:18.619Z,14.06
2018-10-05T07:43:48.118Z,14.29
2018-10-05T07:46:17.705Z,14.43
2018-10-05T07:48:47.235Z,14.50
2018-10-05T07:51:16.744Z,14.64
2018-10-05T07:53:46.290Z,14.74
2018-10-05T07:56:15.811Z,14.84
2018-10-05T07:58:45.349Z,15.03
2018-10-05T08:01:14.879Z,15.27
2018-10-05T08:03:44.453Z,15.48
2018-10-05T08:06:13.993Z,15.77
2018-10-05T08:08:43.727Z,16.00
2018-10-05T08:11:13.313Z,16.05
2018-10-05T08:13:42.857Z,16.28
2018-10-05T08:16:12.365Z,16.34
2018-10-05T08:18:42.083Z,16.49
2018-10-05T08:21:11.687Z,16.67
2018-10-05T08:23:41.448Z,16.73
2018-10-05T08:26:11.042Z,16.86
2018-10-05T08:28:40.555Z,16.96
2018-10-05T08:31:10.084Z,17.09
2018-10-05T08:33:39.840Z,17.28
2018-10-05T08:36:09.504Z,17.35
2018-10-05T08:38:39.035Z,17.48
2018-10-05T08:41:08.579Z,17.64
2018-10-05T08:43:38.122Z,17.70
2018-10-05T08:46:08.058Z,17.79
2018-10-05T08:48:37.583Z,17.92
2018-10-05T08:51:07.199Z,17.99
2018-10-05T08:53:36.711Z,18.09
2018-10-05T08:56:06.247Z,18.21
2018-10-05T08:58:35.775Z,18.36
2018-10-05T09:01:05.308Z,18.54
2018-10-05T09:03:34.855Z,18.64
2018-10-05T09:06:04.399Z,18.72
2018-10-05T09:08:33.955Z,18.80
2018-10-05T09:11:03.528Z,18.88
2018-10-05T09:13:33.071Z,18.87
2018-10-05T09:16:02.589Z,19.07
2018-10-05T09:18:32.752Z,19.32
2018-10-05T09:21:02.263Z,19.51
2018-10-05T09:23:31.788Z,19.51
2018-10-05T09:26:01.317Z,19.56
2018-10-05T09:28:30.843Z,19.76
2018-10-05T09:31:00.563Z,19.88
2018-10-05T09:33:30.133Z,19.97
2018-10-05T09:35:59.775Z,20.06
2018-10-05T09:38:29.309Z,20.20
2018-10-05T09:40:59.124Z,20.28
2018-10-05T09:43:28.675Z,20.34
2018-10-05T09:45:58.204Z,20.56
2018-10-05T09:48:27.748Z,20.66
2018-10-05T09:50:57.517Z,20.79
2018-10-05T09:53:27.086Z,20.84
2018-10-05T09:55:56.845Z,20.94
2018-10-05T09:58:26.375Z,21.11
2018-10-05T10:01:00.956Z,21.14
2018-10-05T10:03:34.236Z,21.20
2018-10-05T10:06:04.468Z,21.26
2018-10-05T10:08:34.459Z,21.30
2018-10-05T10:11:04.006Z,21.41
2018-10-05T10:13:34.063Z,21.36
2018-10-05T10:16:03.609Z,21.37
2018-10-05T10:18:33.191Z,21.47
2018-10-05T10:21:03.061Z,21.57
2018-10-05T10:23:32.791Z,21.59
2018-10-05T10:26:02.332Z,21.63
2018-10-05T10:28:32.295Z,21.70
2018-10-05T10:31:01.980Z,21.68
2018-10-05T10:33:31.879Z,21.70
2018-10-05T10:36:01.598Z,21.73
2018-10-05T10:38:31.166Z,21.81
2018-10-05T10:41:00.707Z,21.85
2018-10-05T10:43:30.233Z,21.83
2018-10-05T10:45:59.858Z,21.88
2018-10-05T10:48:29.398Z,21.81
2018-10-05T10:50:58.979Z,21.76
2018-10-05T10:53:28.607Z,21.83
2018-10-05T10:55:58.168Z,21.88
2018-10-05T10:58:27.711Z,21.75
2018-10-05T11:00:57.259Z,21.76
2018-10-05T11:03:26.815Z,21.82
2018-10-05T11:05:56.346Z,21.87
2018-10-05T11:08:25.889Z,21.90
2018-10-05T11:10:55.452Z,22.02
2018-10-05T11:13:25.472Z,22.02
2018-10-05T11:15:55.028Z,22.06
2018-10-05T11:18:24.664Z,22.07
2018-10-05T11:20:54.248Z,22.14
2018-10-05T11:23:23.996Z,22.13
2018-10-05T11:25:53.675Z,22.08
2018-10-05T11:28:23.209Z,21.76
2018-10-05T11:30:52.746Z,21.72
2018-10-05T11:33:22.319Z,21.73
2018-10-05T11:35:51.912Z,21.73
2018-10-05T11:38:21.491Z,21.69
2018-10-05T11:40:51.364Z,21.59
2018-10-05T11:43:20.976Z,21.58
2018-10-05T11:45:51.175Z,21.58
2018-10-05T11:48:20.735Z,21.62
2018-10-05T11:50:50.323Z,21.70
2018-10-05T11:53:19.888Z,21.79
2018-10-05T11:55:49.459Z,21.85
2018-10-05T11:58:19.344Z,21.86
2018-10-05T12:00:48.930Z,21.94
2018-10-05T12:03:18.511Z,22.04
2018-10-05T12:05:48.069Z,22.11
2018-10-05T12:08:17.969Z,22.14
2018-10-05T12:10:47.511Z,22.12
2018-10-05T12:13:17.068Z,22.13
2018-10-05T12:15:46.611Z,22.14
2018-10-05T12:18:16.288Z,22.06
2018-10-05T12:20:45.821Z,22.07
2018-10-05T12:23:15.344Z,22.10
2018-10-05T12:25:45.755Z,22.10
2018-10-05T12:28:15.384Z,22.18
2018-10-05T12:33:13.574Z,22.36
2018-10-05T12:35:43.252Z,22.37
2018-10-05T12:38:12.799Z,22.39
2018-10-05T12:40:42.457Z,22.41
2018-10-05T12:43:12.201Z,22.44
2018-10-05T12:45:41.894Z,22.50
2018-10-05T12:48:11.447Z,22.58
2018-10-05T12:50:41.018Z,22.67
2018-10-05T12:53:10.575Z,22.71
2018-10-05T12:55:40.139Z,22.73
2018-10-05T12:58:09.779Z,22.76
2018-10-05T13:00:39.588Z,22.77
2018-10-05T13:03:09.118Z,22.76
2018-10-05T13:05:38.738Z,22.76
2018-10-05T13:08:08.318Z,22.77
2018-10-05T13:10:37.890Z,22.79
2018-10-05T13:13:07.755Z,22.81
2018-10-05T13:15:37.496Z,22.86
2018-10-05T13:18:07.397Z,22.86
2018-10-05T13:20:36.924Z,22.89
2018-10-05T13:23:07.104Z,22.90
2018-10-05T13:25:36.643Z,22.90
2018-10-05T13:28:06.190Z,22.90
2018-10-05T13:30:35.773Z,22.93
2018-10-05T13:33:05.292Z,22.95
2018-10-05T13:35:34.884Z,22.97
2018-10-05T13:38:04.452Z,22.97
2018-10-05T13:40:34.414Z,22.93
2018-10-05T13:43:04.021Z,22.91
2018-10-05T13:45:35.315Z,22.92
2018-10-05T13:48:04.863Z,22.95
2018-10-05T13:50:34.384Z,22.98
2018-10-05T13:53:04.090Z,22.98
2018-10-05T13:55:33.635Z,22.97
2018-10-05T13:58:03.178Z,22.98
2018-10-05T14:00:32.749Z,22.96
2018-10-05T14:03:02.284Z,22.94
2018-10-05T14:05:32.176Z,22.98
2018-10-05T14:08:02.075Z,23.00
2018-10-05T14:10:31.636Z,23.01
2018-10-05T14:13:01.364Z,23.03
2018-10-05T14:15:30.928Z,23.02
2018-10-05T14:18:00.495Z,23.02
2018-10-05T14:20:30.050Z,23.02
2018-10-05T14:22:59.822Z,23.00
2018-10-05T14:25:29.387Z,23.00
2018-10-05T14:27:59.137Z,22.98
2018-10-05T14:30:28.728Z,22.97
2018-10-05T14:32:58.300Z,22.95
2018-10-05T14:35:27.843Z,22.93
2018-10-05T14:37:57.397Z,22.94
2018-10-05T14:40:27.149Z,22.92
2018-10-05T14:42:56.935Z,22.92
2018-10-05T14:45:26.527Z,22.92
2018-10-05T14:47:56.107Z,22.91
2018-10-05T14:50:25.667Z,22.89
2018-10-05T14:52:55.340Z,22.85
2018-10-05T14:55:24.897Z,22.83
2018-10-05T14:57:54.720Z,22.81
2018-10-05T15:00:24.275Z,22.80
2018-10-05T15:02:53.859Z,22.77
2018-10-05T15:05:23.403Z,22.77
2018-10-05T15:07:53.041Z,22.75
2018-10-05T15:10:22.624Z,22.73
2018-10-05T15:12:52.380Z,22.71
2018-10-05T15:15:22.024Z,22.69
2018-10-05T15:17:51.625Z,22.66
2018-10-05T15:20:21.560Z,22.66
2018-10-05T15:22:51.460Z,22.63
2018-10-05T15:25:21.077Z,22.60
2018-10-05T15:27:51.261Z,22.58
2018-10-05T15:30:20.811Z,22.55
2018-10-05T15:32:50.501Z,22.51
2018-10-05T15:35:20.540Z,22.46
2018-10-05T15:37:50.144Z,22.45
2018-10-05T15:40:19.737Z,22.41
2018-10-05T15:42:49.281Z,22.38
2018-10-05T15:45:18.873Z,22.33
2018-10-05T15:47:48.424Z,22.32
2018-10-05T15:50:18.379Z,22.26
2018-10-05T15:52:47.961Z,22.23
2018-10-05T15:55:17.747Z,22.19
2018-10-05T15:57:47.278Z,22.16
2018-10-05T16:00:16.854Z,22.12
2018-10-05T16:02:46.407Z,22.10
2018-10-05T16:05:16.120Z,22.08
2018-10-05T16:07:45.861Z,22.02
2018-10-05T16:10:15.417Z,21.98
2018-10-05T16:12:45.261Z,21.93
2018-10-05T16:15:15.075Z,21.91
2018-10-05T16:17:44.895Z,21.86
2018-10-05T16:20:14.514Z,21.81
2018-10-05T16:22:44.148Z,21.77
2018-10-05T16:25:13.753Z,21.76
2018-10-05T16:27:43.523Z,21.72
2018-10-05T16:30:13.131Z,21.66
2018-10-05T16:32:42.720Z,21.61
2018-10-05T16:35:12.271Z,21.57
2018-10-05T16:37:41.844Z,21.49
2018-10-05T16:40:11.399Z,21.43
2018-10-05T16:42:40.965Z,21.35
2018-10-05T16:45:10.540Z,21.28
2018-10-05T16:47:40.175Z,21.21
2018-10-05T16:50:09.813Z,21.13
2018-10-05T16:52:39.403Z,21.03
2018-10-05T16:55:09.543Z,20.94
2018-10-05T16:57:39.064Z,20.85
2018-10-05T17:00:08.935Z,20.73
2018-10-05T17:02:38.521Z,20.62
2018-10-05T17:05:08.168Z,20.53
2018-10-05T17:07:37.742Z,20.42
2018-10-05T17:10:07.455Z,20.34
2018-10-05T17:12:37.022Z,20.28
2018-10-05T17:15:07.619Z,20.19
2018-10-05T17:17:37.175Z,20.08
2018-10-05T17:20:06.869Z,20.02
2018-10-05T17:22:36.527Z,19.92
2018-10-05T17:25:06.636Z,19.82
2018-10-05T17:27:36.235Z,19.70
2018-10-05T17:30:06.302Z,19.62
2018-10-05T17:32:35.887Z,19.55
2018-10-05T17:35:05.548Z,19.48
2018-10-05T17:37:35.235Z,19.39
2018-10-05T17:40:05.407Z,19.30
2018-10-05T17:42:34.983Z,19.21
2018-10-05T17:45:04.703Z,19.12
2018-10-05T17:47:34.444Z,19.05
2018-10-05T17:50:04.591Z,18.98
2018-10-05T17:52:34.231Z,18.89
2018-10-05T17:55:04.108Z,18.78
2018-10-05T17:57:33.934Z,18.69
2018-10-05T18:00:03.539Z,18.60
2018-10-05T18:02:33.133Z,18.48
2018-10-05T18:05:02.802Z,18.39
2018-10-05T18:07:32.388Z,18.30
2018-10-05T18:10:02.020Z,18.20
2018-10-05T18:12:31.703Z,18.12
2018-10-05T18:15:01.286Z,18.03
2018-10-05T18:17:31.423Z,17.93
2018-10-05T18:20:01.035Z,17.87
2018-10-05T18:22:30.615Z,17.81
2018-10-05T18:25:00.209Z,17.74
2018-10-05T18:27:30.116Z,17.67
2018-10-05T18:29:59.760Z,17.60
2018-10-05T18:32:29.309Z,17.52
2018-10-05T18:34:58.875Z,17.46
2018-10-05T18:37:28.751Z,17.41
2018-10-05T18:39:58.317Z,17.33
2018-10-05T18:42:27.913Z,17.24
2018-10-05T18:44:57.538Z,17.15
2018-10-05T18:47:27.416Z,17.05
2018-10-05T18:49:57.076Z,16.99
2018-10-05T18:52:26.690Z,16.96
2018-10-05T18:54:56.520Z,16.92
2018-10-05T18:57:26.460Z,16.87
2018-10-05T18:59:56.052Z,16.82
2018-10-05T19:02:26.038Z,16.77
2018-10-05T19:04:55.924Z,16.74
2018-10-05T19:07:25.835Z,16.69
2018-10-05T19:09:55.479Z,16.66
2018-10-05T19:12:25.136Z,16.63
2018-10-05T19:14:54.759Z,16.56
2018-10-05T19:17:24.438Z,16.50
2018-10-05T19:19:54.056Z,16.45
2018-10-05T19:22:23.675Z,16.40
2018-10-05T19:24:53.240Z,16.33
2018-10-05T19:27:22.845Z,16.30
2018-10-05T19:29:52.428Z,16.23
2018-10-05T19:32:22.030Z,16.19
2018-10-05T19:34:51.635Z,16.13
2018-10-05T19:37:21.259Z,16.07
2018-10-05T19:39:51.175Z,16.01
2018-10-05T19:42:20.753Z,15.97
2018-10-05T19:44:50.313Z,15.89
2018-10-05T19:47:19.892Z,15.84
2018-10-05T19:49:49.478Z,15.78
2018-10-05T19:52:19.032Z,15.74
2018-10-05T19:54:48.644Z,15.72
2018-10-05T19:57:18.235Z,15.67
2018-10-05T19:59:47.817Z,15.63
2018-10-05T20:02:17.524Z,15.59
2018-10-05T20:04:47.107Z,15.55
2018-10-05T20:07:16.714Z,15.54
2018-10-05T20:09:46.295Z,15.49
2018-10-05T20:12:16.104Z,15.48
2018-10-05T20:14:45.705Z,15.43
2018-10-05T20:17:15.330Z,15.42
2018-10-05T20:19:44.971Z,15.37
2018-10-05T20:22:14.787Z,15.34
2018-10-05T20:24:44.466Z,15.31
2018-10-05T20:27:14.111Z,15.27
2018-10-05T20:29:43.669Z,15.24
2018-10-05T20:32:13.253Z,15.19
2018-10-05T20:34:42.795Z,15.13
2018-10-05T20:37:12.484Z,15.09
2018-10-05T20:39:42.105Z,15.06
2018-10-05T20:42:12.056Z,15.04
2018-10-05T20:44:41.820Z,15.00
2018-10-05T20:47:11.403Z,14.95
2018-10-05T20:49:40.968Z,14.89
2018-10-05T20:52:10.545Z,14.85
2018-10-05T20:54:40.167Z,14.81
2018-10-05T20:57:09.687Z,14.81
2018-10-05T20:59:39.291Z,14.78
2018-10-05T21:02:08.978Z,14.75
2018-10-05T21:04:38.920Z,14.74
2018-10-05T21:07:08.557Z,14.72
2018-10-05T21:09:38.200Z,14.69
2018-10-05T21:12:08.264Z,14.66
2018-10-05T21:14:37.852Z,14.62
2018-10-05T21:17:07.767Z,14.61
2018-10-05T21:19:37.505Z,14.58
2018-10-05T21:22:07.487Z,14.54
2018-10-05T21:24:37.035Z,14.52
2018-10-05T21:27:06.620Z,14.47
2018-10-05T21:29:36.188Z,14.44
2018-10-05T21:32:05.750Z,14.41
2018-10-05T21:34:35.339Z,14.38
2018-10-05T21:37:04.930Z,14.34
2018-10-05T21:39:34.518Z,14.30
2018-10-05T21:42:04.475Z,14.28
2018-10-05T21:44:34.040Z,14.24
2018-10-05T21:47:03.645Z,14.20
2018-10-05T21:49:33.199Z,14.19
2018-10-05T21:52:02.800Z,14.14
2018-10-05T21:54:32.400Z,14.11
2018-10-05T21:57:01.948Z,14.06
2018-10-05T21:59:31.551Z,14.02
2018-10-05T22:02:01.101Z,13.99
2018-10-05T22:04:30.913Z,13.96
2018-10-05T22:07:00.556Z,13.94
2018-10-05T22:09:30.127Z,13.91
2018-10-05T22:11:59.719Z,13.86
2018-10-05T22:14:29.269Z,13.84
2018-10-05T22:16:59.105Z,13.82
2018-10-05T22:19:28.691Z,13.79
2018-10-05T22:21:58.446Z,13.78
2018-10-05T22:24:28.020Z,13.77
2018-10-05T22:26:57.571Z,13.72
2018-10-05T22:29:27.511Z,13.71
2018-10-05T22:31:57.095Z,13.70
2018-10-05T22:34:26.658Z,13.68
2018-10-05T22:36:56.227Z,13.64
2018-10-05T22:39:25.799Z,13.60
2018-10-05T22:41:58.435Z,13.57
2018-10-05T22:44:27.953Z,13.56
2018-10-05T22:46:58.052Z,13.52
2018-10-05T22:49:27.640Z,13.49
2018-10-05T22:51:57.267Z,13.49
2018-10-05T22:54:26.826Z,13.46
2018-10-05T22:56:56.421Z,13.42
2018-10-05T22:59:26.619Z,13.39
2018-10-05T23:01:56.147Z,13.36
2018-10-05T23:04:25.698Z,13.36
2018-10-05T23:06:55.456Z,13.34
2018-10-05T23:09:25.039Z,13.30
2018-10-05T23:11:54.616Z,13.29
2018-10-05T23:14:24.219Z,13.22
2018-10-05T23:16:53.815Z,13.23
2018-10-05T23:19:23.361Z,13.21
2018-10-05T23:21:52.963Z,13.18
2018-10-05T23:24:22.491Z,13.13
2018-10-05T23:26:52.072Z,13.10
2018-10-05T23:29:21.639Z,13.09
2018-10-05T23:31:51.213Z,13.08
2018-10-05T23:34:20.783Z,13.05
2018-10-05T23:36:50.363Z,13.03
2018-10-05T23:39:19.907Z,13.00
2018-10-05T23:41:49.478Z,12.99
2018-10-05T23:44:19.219Z,12.98
2018-10-05T23:46:48.757Z,12.94
2018-10-05T23:49:18.326Z,12.93
2018-10-05T23:51:48.182Z,12.90
2018-10-05T23:54:17.733Z,12.91
2018-10-05T23:56:47.312Z,12.88
2018-10-05T23:59:16.858Z,12.86
